Allendale, NJ (07401)

3:35 PM EST on February 10, 2016 (GMT -0500)
urban | | Change Station
CLOSE
Current Station
Personal Weather Station
Location: Allendale, NJ
Elevation: 377 ft
Nearby Weather Stations

Elev 377 ft 41.04 °N, 74.15 °W | Updated 14 minutes ago

Overcast
Overcast
37.2 °F
Feels Like 33 °F
N
4.7
Wind Variable Wind from WNW

Today
High -- | Low -- °F
--% Chance of Precip.
Yesterday
High -- | Low -- °F
Precip. -- in
Pressure 29.65 in
Visibility 10.0 miles
Clouds Overcast 5000 ft
Windchill 33 °F
Dew Point 18 °F
Humidity 46%
Rainfall 0.00 in
Snow Depth Not available.
6:57 AM 5:24 PM
Waxing Crescent, 7% visible
METAR KCDW 101953Z 31010G15KT 10SM OVC050 03/M08 A2962 RMK AO2 SLP038 T00331078
Pressure 29.65 in
Visibility 10.0 miles
Clouds Overcast 5000 ft
Windchill 33 °F
Dew Point 18 °F
Humidity 46%
Rainfall 0.00 in
Snow Depth Not available.
6:57 AM 5:24 PM
Waxing Crescent, 7% visible
METAR KCDW 101953Z 31010G15KT 10SM OVC050 03/M08 A2962 RMK AO2 SLP038 T00331078

10-Day Weather Forecast

Almanac

Astronomy

Feb. 10, 2016 Rise Set
Actual Time
Civil Twilight
Nautical Twilight
Astronomical Twilight
Moon
Length of Visible Light
Length of Day
Tomorrow will be .
, % of the Moon is Illuminated

Today's Extremes

State Highs State Lows

Community

WunderPhotos

Upload Photos

1,891,943 photos uploaded!

WunderBlog® & News

Nearby

Air Quality

  Air Quality AQ Index Pollutant
Not available.

Snow Depth

Station Depth Elevation

Earthquake Activity

City Distance Mag. Time & Date
Minimum magnitude displayed is 2.5.

Coastal Water Temperatures

Place Temperature

Stations

Nearby Weather Stations

Station Location Temp. Windchill Dew Point Humidity Wind Precip. Elev Updated Type
                   

Watches & Warnings

There are currently no watches in effect.